createdAt,value
2022-09-11T00:01:39.655Z,17.13
2022-09-11T00:06:34.115Z,14.10
2022-09-11T00:09:05.698Z,17.40
2022-09-11T00:11:39.816Z,20.70
2022-09-11T00:14:09.603Z,14.10
2022-09-11T00:16:40.645Z,19.00
2022-09-11T00:19:13.062Z,21.95
2022-09-11T00:21:40.190Z,25.20
2022-09-11T00:24:09.431Z,27.90
2022-09-11T00:26:40.497Z,16.92
2022-09-11T00:29:08.529Z,21.58
2022-09-11T00:31:35.746Z,14.87
2022-09-11T00:34:02.990Z,22.30
2022-09-11T00:36:31.254Z,14.07
2022-09-11T00:38:59.335Z,15.00
2022-09-11T00:41:31.251Z,15.30
2022-09-11T00:44:18.310Z,20.60
2022-09-11T00:47:02.484Z,21.58
2022-09-11T00:49:33.321Z,32.15
2022-09-11T00:52:09.055Z,18.85
2022-09-11T00:54:55.863Z,11.85
2022-09-11T00:57:28.059Z,23.83
2022-09-11T00:59:58.076Z,21.38
2022-09-11T01:02:27.852Z,18.58
2022-09-11T01:04:56.376Z,25.77
2022-09-11T01:09:53.548Z,26.13
2022-09-11T01:12:55.118Z,15.10
2022-09-11T01:15:46.749Z,14.18
2022-09-11T01:18:53.146Z,23.92
2022-09-11T01:21:52.299Z,18.92
2022-09-11T01:24:53.717Z,19.60
2022-09-11T01:27:39.188Z,17.13
2022-09-11T01:30:20.115Z,20.83
2022-09-11T01:33:12.022Z,23.67
2022-09-11T01:36:28.186Z,22.65
2022-09-11T01:39:03.943Z,17.77
2022-09-11T01:41:56.790Z,18.42
2022-09-11T01:44:40.047Z,15.55
2022-09-11T01:47:11.149Z,16.50
2022-09-11T01:50:06.659Z,15.05
2022-09-11T01:52:43.448Z,16.02
2022-09-11T01:55:20.653Z,16.60
2022-09-11T01:57:58.629Z,16.00
2022-09-11T02:00:26.432Z,13.70
2022-09-11T02:03:03.458Z,20.58
2022-09-11T02:06:07.566Z,20.08
2022-09-11T02:08:54.974Z,20.40
2022-09-11T02:11:27.839Z,17.38
2022-09-11T02:14:05.773Z,14.77
2022-09-11T02:16:56.623Z,13.13
2022-09-11T02:19:27.826Z,13.05
2022-09-11T02:21:57.296Z,16.30
2022-09-11T02:24:25.321Z,19.02
2022-09-11T02:27:03.371Z,13.57
2022-09-11T02:29:33.489Z,19.17
2022-09-11T02:32:03.050Z,16.65
2022-09-11T02:34:34.782Z,17.60
2022-09-11T02:37:30.351Z,19.77
2022-09-11T02:40:14.064Z,12.40
2022-09-11T02:43:02.951Z,14.02
2022-09-11T02:48:59.700Z,14.35
2022-09-11T02:51:41.140Z,27.98
2022-09-11T02:54:30.343Z,11.38
2022-09-11T02:57:14.789Z,24.92
2022-09-11T02:59:55.676Z,14.65
2022-09-11T03:02:24.425Z,17.73
2022-09-11T03:04:51.579Z,26.25
2022-09-11T03:07:18.942Z,15.85
2022-09-11T03:09:46.723Z,19.90
2022-09-11T03:12:19.762Z,19.67
2022-09-11T03:14:50.915Z,14.82
2022-09-11T03:17:19.348Z,21.42
2022-09-11T03:19:47.878Z,12.80
2022-09-11T03:22:15.074Z,15.50
2022-09-11T03:24:42.959Z,23.95
2022-09-11T03:27:10.981Z,12.57
2022-09-11T03:29:40.280Z,17.05
2022-09-11T03:32:09.145Z,20.80
2022-09-11T03:34:36.399Z,14.73
2022-09-11T03:37:03.558Z,16.77
2022-09-11T03:39:30.653Z,15.82
2022-09-11T03:42:00.430Z,16.20
2022-09-11T03:44:28.509Z,15.27
2022-09-11T03:46:55.800Z,15.23
2022-09-11T03:49:22.939Z,16.85
2022-09-11T03:51:50.040Z,20.77
2022-09-11T03:54:18.463Z,14.57
2022-09-11T03:56:46.627Z,16.63
2022-09-11T03:59:15.865Z,16.40
2022-09-11T04:01:44.442Z,15.63
2022-09-11T04:04:15.450Z,13.93
2022-09-11T04:06:43.936Z,15.60
2022-09-11T04:09:11.029Z,15.85
2022-09-11T04:11:39.441Z,15.50
2022-09-11T04:14:18.759Z,11.70
2022-09-11T04:16:47.193Z,12.07
2022-09-11T04:19:14.459Z,13.93
2022-09-11T04:21:43.731Z,14.57
2022-09-11T04:24:11.021Z,19.23
2022-09-11T04:26:38.223Z,20.80
2022-09-11T04:29:20.686Z,11.40
2022-09-11T04:31:47.939Z,14.07
2022-09-11T04:34:16.405Z,12.68
2022-09-11T04:36:43.757Z,11.70
2022-09-11T04:39:15.513Z,10.85
2022-09-11T04:41:43.771Z,10.65
2022-09-11T04:44:11.002Z,12.30
2022-09-11T04:46:42.729Z,11.82
2022-09-11T04:49:11.039Z,8.48
2022-09-11T04:51:39.879Z,10.57
2022-09-11T04:54:15.118Z,10.23
2022-09-11T04:56:42.409Z,10.40
2022-09-11T04:59:18.897Z,9.90
2022-09-11T05:01:51.569Z,8.02
2022-09-11T05:04:21.698Z,7.53
2022-09-11T05:06:50.285Z,7.40
2022-09-11T05:09:18.995Z,8.65
2022-09-11T05:11:48.129Z,8.77
2022-09-11T05:16:45.494Z,7.53
2022-09-11T05:19:14.984Z,7.85
2022-09-11T05:21:44.204Z,6.28
2022-09-11T05:24:11.376Z,7.22
2022-09-11T05:26:40.495Z,6.65
2022-09-11T05:29:15.828Z,6.05
2022-09-11T05:32:01.304Z,5.95
2022-09-11T05:34:29.567Z,6.72
2022-09-11T05:36:57.983Z,7.65
2022-09-11T05:39:28.148Z,6.18
2022-09-11T05:41:56.282Z,5.72
2022-09-11T05:44:30.339Z,5.30
2022-09-11T05:46:58.423Z,6.25
2022-09-11T05:49:25.677Z,4.90
2022-09-11T05:51:52.912Z,5.33
2022-09-11T05:54:20.134Z,4.45
2022-09-11T05:56:47.894Z,4.13
2022-09-11T05:59:22.416Z,5.00
2022-09-11T06:01:50.779Z,4.18
2022-09-11T06:04:33.477Z,3.92
2022-09-11T06:07:00.805Z,3.75
2022-09-11T06:09:29.200Z,3.40
2022-09-11T06:11:57.185Z,4.18
2022-09-11T06:14:24.570Z,3.45
2022-09-11T06:16:54.393Z,4.60
2022-09-11T06:19:21.640Z,3.58
2022-09-11T06:21:49.879Z,3.95
2022-09-11T06:24:33.884Z,3.90
2022-09-11T06:27:00.876Z,3.40
2022-09-11T06:29:31.659Z,2.97
2022-09-11T06:32:00.732Z,3.08
2022-09-11T06:34:30.978Z,3.28
2022-09-11T06:37:01.669Z,2.45
2022-09-11T06:41:58.171Z,3.00
2022-09-11T06:44:29.218Z,2.28
2022-09-11T06:46:59.785Z,2.63
2022-09-11T06:49:27.605Z,2.67
2022-09-11T06:52:12.946Z,2.03
2022-09-11T06:54:44.592Z,1.75
2022-09-11T06:57:14.715Z,2.65
2022-09-11T06:59:42.480Z,1.70
2022-09-11T07:02:10.186Z,3.75
2022-09-11T07:04:38.323Z,2.38
2022-09-11T07:07:05.792Z,1.73
2022-09-11T07:09:33.933Z,1.85
2022-09-11T07:12:01.664Z,1.80
2022-09-11T07:14:32.294Z,1.80
2022-09-11T07:17:09.263Z,1.60
2022-09-11T07:19:36.368Z,1.77
2022-09-11T07:22:03.973Z,2.40
2022-09-11T07:24:32.970Z,1.60
2022-09-11T07:27:00.236Z,2.15
2022-09-11T07:29:31.696Z,2.25
2022-09-11T07:31:59.393Z,1.40
2022-09-11T07:36:55.278Z,1.50
2022-09-11T07:39:25.145Z,2.25
2022-09-11T07:41:59.413Z,1.75
2022-09-11T07:44:29.778Z,1.73
2022-09-11T07:46:57.863Z,1.67
2022-09-11T07:49:26.681Z,1.17
2022-09-11T07:51:54.839Z,1.52
2022-09-11T07:54:32.723Z,1.30
2022-09-11T07:57:00.045Z,1.27
2022-09-11T07:59:27.284Z,1.58
2022-09-11T08:01:55.188Z,1.63
2022-09-11T08:04:22.811Z,1.08
2022-09-11T08:06:50.176Z,1.40
2022-09-11T08:09:21.903Z,1.20
2022-09-11T08:11:55.267Z,1.00
2022-09-11T08:14:25.131Z,1.30
2022-09-11T08:16:54.284Z,0.63
2022-09-11T08:19:24.118Z,1.08
2022-09-11T08:21:55.458Z,0.70
2022-09-11T08:24:23.761Z,1.37
2022-09-11T08:26:56.433Z,1.00
2022-09-11T08:29:25.617Z,1.63
2022-09-11T08:31:53.319Z,0.95
2022-09-11T08:34:21.654Z,0.55
2022-09-11T08:36:51.380Z,0.93
2022-09-11T08:39:19.686Z,0.88
2022-09-11T08:42:15.466Z,0.90
2022-09-11T08:44:57.024Z,0.95
2022-09-11T08:47:56.911Z,0.77
2022-09-11T08:50:35.926Z,0.85
2022-09-11T08:53:03.744Z,0.50
2022-09-11T08:55:43.106Z,0.80
2022-09-11T08:58:57.194Z,0.68
2022-09-11T09:01:56.540Z,2.35
2022-09-11T09:04:40.752Z,1.75
2022-09-11T09:07:48.517Z,0.88
2022-09-11T09:10:49.569Z,1.17
2022-09-11T09:13:32.489Z,1.10
2022-09-11T09:16:34.374Z,0.95
2022-09-11T09:19:09.452Z,0.75
2022-09-11T09:22:00.623Z,0.60
2022-09-11T09:24:35.686Z,0.52
2022-09-11T09:27:04.759Z,0.60
2022-09-11T09:29:38.023Z,0.68
2022-09-11T09:32:15.794Z,0.88
2022-09-11T09:34:45.233Z,0.38
2022-09-11T09:37:23.138Z,0.80
2022-09-11T09:39:51.213Z,0.82
2022-09-11T09:42:59.307Z,0.80
2022-09-11T09:45:50.100Z,0.50
2022-09-11T09:48:17.516Z,0.80
2022-09-11T09:50:44.723Z,0.55
2022-09-11T09:53:28.907Z,0.60
2022-09-11T09:55:58.202Z,1.17
2022-09-11T09:58:32.592Z,0.43
2022-09-11T10:00:59.946Z,0.85
2022-09-11T10:03:27.341Z,1.23
2022-09-11T10:05:56.015Z,0.45
2022-09-11T10:08:36.436Z,0.93
2022-09-11T10:11:10.604Z,1.10
2022-09-11T10:13:41.946Z,0.73
2022-09-11T10:16:24.904Z,1.08
2022-09-11T10:18:54.298Z,0.80
2022-09-11T10:21:38.971Z,0.77
2022-09-11T10:24:09.114Z,0.40
2022-09-11T10:26:49.165Z,0.85
2022-09-11T10:29:34.678Z,0.77
2022-09-11T10:32:03.194Z,0.70
2022-09-11T10:37:23.005Z,0.40
2022-09-11T10:39:51.110Z,0.50
2022-09-11T10:42:27.125Z,0.32
2022-09-11T10:45:11.927Z,0.55
2022-09-11T10:47:39.571Z,1.02
2022-09-11T10:50:22.621Z,0.60
2022-09-11T10:52:52.593Z,0.60
2022-09-11T10:55:21.168Z,1.15
2022-09-11T11:00:30.096Z,1.58
2022-09-11T11:03:17.706Z,0.77
2022-09-11T11:06:41.708Z,0.50
2022-09-11T11:09:47.059Z,0.90
2022-09-11T11:12:45.061Z,1.35
2022-09-11T11:15:45.232Z,0.45
2022-09-11T11:18:28.489Z,1.00
2022-09-11T11:21:19.412Z,0.63
2022-09-11T11:24:17.100Z,0.93
2022-09-11T11:27:30.270Z,1.17
2022-09-11T11:30:18.803Z,0.98
2022-09-11T11:32:52.750Z,1.02
2022-09-11T11:35:47.381Z,0.63
2022-09-11T11:38:21.682Z,0.70
2022-09-11T11:41:03.661Z,0.90
2022-09-11T11:43:36.358Z,1.30
2022-09-11T11:46:26.632Z,1.10
2022-09-11T11:49:02.263Z,0.75
2022-09-11T11:51:53.631Z,0.70
2022-09-11T11:54:37.239Z,0.80
2022-09-11T11:57:20.025Z,1.20
2022-09-11T12:00:00.885Z,0.73
2022-09-11T12:02:39.283Z,1.27
2022-09-11T12:07:51.037Z,6.90
2022-09-11T12:10:30.405Z,0.93
2022-09-11T12:13:12.007Z,10.55
2022-09-11T12:15:39.459Z,1.63
2022-09-11T12:18:15.736Z,11.75
2022-09-11T12:20:45.289Z,2.28
2022-09-11T12:23:30.691Z,2.00
2022-09-11T12:26:08.021Z,0.60
2022-09-11T12:28:35.293Z,1.70
2022-09-11T12:31:11.602Z,1.90
2022-09-11T12:33:45.238Z,6.45
2022-09-11T12:36:47.240Z,3.42
2022-09-11T12:39:38.591Z,4.13
2022-09-11T12:42:22.325Z,2.42
2022-09-11T12:44:49.267Z,0.75
2022-09-11T12:47:38.143Z,2.20
2022-09-11T12:50:09.746Z,2.28
2022-09-11T12:52:54.151Z,7.13
2022-09-11T12:55:32.615Z,1.52
2022-09-11T12:58:06.095Z,1.42
2022-09-11T13:00:41.655Z,1.13
2022-09-11T13:03:23.050Z,0.65
2022-09-11T13:06:23.377Z,0.60
2022-09-11T13:08:59.045Z,0.35
2022-09-11T13:11:48.936Z,0.52
2022-09-11T13:14:30.024Z,0.60
2022-09-11T13:17:00.174Z,0.25
2022-09-11T13:19:36.777Z,2.58
2022-09-11T13:22:22.926Z,0.20
2022-09-11T13:24:51.601Z,0.10
2022-09-11T13:27:25.935Z,0.10
2022-09-11T13:29:57.694Z,0.10
2022-09-11T13:32:25.058Z,0.20
2022-09-11T13:35:01.614Z,0.22
2022-09-11T13:37:45.075Z,0.85
2022-09-11T13:41:06.272Z,0.38
2022-09-11T13:43:54.289Z,0.88
2022-09-11T13:46:30.809Z,0.30
2022-09-11T13:49:10.381Z,0.38
2022-09-11T13:51:44.376Z,0.40
2022-09-11T13:54:37.640Z,0.85
2022-09-11T13:57:23.873Z,0.47
2022-09-11T13:59:58.008Z,0.20
2022-09-11T14:02:34.326Z,0.50
2022-09-11T14:05:27.247Z,0.57
2022-09-11T14:08:20.509Z,0.68
2022-09-11T14:10:55.980Z,0.10
2022-09-11T14:13:50.766Z,0.90
2022-09-11T14:16:25.872Z,0.10
2022-09-11T14:19:05.663Z,0.40
2022-09-11T14:21:37.821Z,0.38
2022-09-11T14:24:28.744Z,0.32
2022-09-11T14:26:57.727Z,0.30
2022-09-11T14:29:32.983Z,0.80
2022-09-11T14:32:39.334Z,0.82
2022-09-11T14:35:09.433Z,0.50
2022-09-11T14:37:45.031Z,0.32
2022-09-11T14:40:18.707Z,0.63
2022-09-11T14:42:46.758Z,0.40
2022-09-11T14:45:23.852Z,1.38
2022-09-11T14:47:52.691Z,0.90
2022-09-11T14:50:20.555Z,0.95
2022-09-11T14:52:47.710Z,0.52
2022-09-11T14:55:17.771Z,1.17
2022-09-11T14:57:48.301Z,0.63
2022-09-11T15:00:17.540Z,0.47
2022-09-11T15:02:45.781Z,0.30
2022-09-11T15:05:19.164Z,0.63
2022-09-11T15:07:46.332Z,1.20
2022-09-11T15:10:14.644Z,0.82
2022-09-11T15:12:42.080Z,0.52
2022-09-11T15:15:11.102Z,0.50
2022-09-11T15:17:38.375Z,1.27
2022-09-11T15:20:08.511Z,0.77
2022-09-11T15:22:37.538Z,0.50
2022-09-11T15:25:05.652Z,0.45
2022-09-11T15:27:33.202Z,1.05
2022-09-11T15:30:00.593Z,1.00
2022-09-11T15:32:27.982Z,0.57
2022-09-11T15:34:55.410Z,0.70
2022-09-11T15:37:23.704Z,0.38
2022-09-11T15:39:51.114Z,0.57
2022-09-11T15:42:18.524Z,0.88
2022-09-11T15:44:45.873Z,1.60
2022-09-11T15:47:13.160Z,0.30
2022-09-11T15:49:43.842Z,5.57
2022-09-11T15:52:11.192Z,0.40
2022-09-11T15:54:38.387Z,0.60
2022-09-11T15:57:06.467Z,0.65
2022-09-11T15:59:33.659Z,0.55
2022-09-11T16:02:00.723Z,1.00
2022-09-11T16:04:30.993Z,0.98
2022-09-11T16:06:58.927Z,0.55
2022-09-11T16:09:29.247Z,0.57
2022-09-11T16:11:57.101Z,0.50
2022-09-11T16:14:32.022Z,0.52
2022-09-11T16:17:01.663Z,0.75
2022-09-11T16:19:29.707Z,0.68
2022-09-11T16:22:00.401Z,0.63
2022-09-11T16:24:30.346Z,1.48
2022-09-11T16:27:00.044Z,1.10
2022-09-11T16:29:44.298Z,0.52
2022-09-11T16:32:27.273Z,0.70
2022-09-11T16:34:56.369Z,0.70
2022-09-11T16:37:23.707Z,0.65
2022-09-11T16:39:51.032Z,0.20
2022-09-11T16:42:20.415Z,0.73
2022-09-11T16:44:48.990Z,1.00
2022-09-11T16:50:05.937Z,1.60
2022-09-11T16:52:32.006Z,0.80
2022-09-11T16:54:59.386Z,0.93
2022-09-11T16:57:29.383Z,1.70
2022-09-11T16:59:56.664Z,1.27
2022-09-11T17:02:23.733Z,1.00
2022-09-11T17:04:50.825Z,0.80
2022-09-11T17:07:18.426Z,1.38
2022-09-11T17:09:46.843Z,1.13
2022-09-11T17:12:16.969Z,1.77
2022-09-11T17:14:44.430Z,1.70
2022-09-11T17:17:11.485Z,2.33
2022-09-11T17:19:38.928Z,2.75
2022-09-11T17:22:07.719Z,2.30
2022-09-11T17:24:35.732Z,1.55
2022-09-11T17:27:03.024Z,1.70
2022-09-11T17:29:30.335Z,0.88
2022-09-11T17:32:16.897Z,1.15
2022-09-11T17:34:45.729Z,0.90
2022-09-11T17:37:13.850Z,1.65
2022-09-11T17:39:41.945Z,15.45
2022-09-11T17:42:12.997Z,3.15
2022-09-11T17:44:41.669Z,3.47
2022-09-11T17:47:09.017Z,2.17
2022-09-11T17:49:36.331Z,0.98
2022-09-11T17:52:03.483Z,1.48
2022-09-11T17:54:30.818Z,1.05
2022-09-11T17:56:58.559Z,1.00
2022-09-11T17:59:25.760Z,0.80
2022-09-11T18:01:52.947Z,1.20
2022-09-11T18:04:21.841Z,1.25
2022-09-11T18:06:50.448Z,1.33
2022-09-11T18:09:19.145Z,1.52
2022-09-11T18:14:18.057Z,1.30
2022-09-11T18:16:47.299Z,1.23
2022-09-11T18:19:17.373Z,0.60
2022-09-11T18:21:49.269Z,1.25
2022-09-11T18:24:20.117Z,1.45
2022-09-11T18:26:56.086Z,1.65
2022-09-11T18:29:26.340Z,1.23
2022-09-11T18:31:54.053Z,0.90
2022-09-11T18:34:26.847Z,1.27
2022-09-11T18:36:54.175Z,0.82
2022-09-11T18:39:21.726Z,1.10
2022-09-11T18:41:52.043Z,2.20
2022-09-11T18:44:22.055Z,1.10
2022-09-11T18:46:53.483Z,0.90
2022-09-11T18:49:21.549Z,1.20
2022-09-11T18:51:48.936Z,1.63
2022-09-11T18:54:20.267Z,1.58
2022-09-11T18:56:49.774Z,1.92
2022-09-11T18:59:17.167Z,1.05
2022-09-11T19:01:44.481Z,1.52
2022-09-11T19:04:13.568Z,1.40
2022-09-11T19:06:40.780Z,1.00
2022-09-11T19:09:09.767Z,1.10
2022-09-11T19:11:37.764Z,1.17
2022-09-11T19:14:09.214Z,0.65
2022-09-11T19:16:37.943Z,0.95
2022-09-11T19:24:02.018Z,0.70
2022-09-11T19:26:33.665Z,1.42
2022-09-11T19:29:01.286Z,0.88
2022-09-11T19:31:29.368Z,1.02
2022-09-11T19:34:00.842Z,0.70
2022-09-11T19:36:31.625Z,1.05
2022-09-11T19:39:00.554Z,0.93
2022-09-11T19:41:37.273Z,0.90
2022-09-11T19:44:07.509Z,0.60
2022-09-11T19:46:37.408Z,0.47
2022-09-11T19:49:06.053Z,1.17
2022-09-11T19:51:37.293Z,1.00
2022-09-11T19:54:05.327Z,0.50
2022-09-11T19:56:35.662Z,0.75
2022-09-11T19:59:04.797Z,1.20
2022-09-11T20:01:32.033Z,0.90
2022-09-11T20:04:00.726Z,1.15
2022-09-11T20:09:13.759Z,0.50
2022-09-11T20:11:45.544Z,0.60
2022-09-11T20:14:12.664Z,0.50
2022-09-11T20:16:39.991Z,0.50
2022-09-11T20:19:08.681Z,0.50
2022-09-11T20:21:36.122Z,1.30
2022-09-11T20:24:05.786Z,0.95
2022-09-11T20:26:34.211Z,0.47
2022-09-11T20:29:08.376Z,0.55
2022-09-11T20:31:46.022Z,0.40
2022-09-11T20:34:16.945Z,0.55
2022-09-11T20:36:44.910Z,0.60
2022-09-11T20:39:13.712Z,0.57
2022-09-11T20:41:41.138Z,0.35
2022-09-11T20:44:08.837Z,0.65
2022-09-11T20:46:36.113Z,1.23
2022-09-11T20:49:04.308Z,0.35
2022-09-11T20:51:33.973Z,0.55
2022-09-11T20:54:01.647Z,0.20
2022-09-11T20:56:29.135Z,0.50
2022-09-11T20:58:57.226Z,0.30
2022-09-11T21:01:26.355Z,0.90
2022-09-11T21:03:56.422Z,0.70
2022-09-11T21:06:26.733Z,0.73
2022-09-11T21:09:00.656Z,0.60
2022-09-11T21:11:29.397Z,0.47
2022-09-11T21:13:56.869Z,1.50
2022-09-11T21:16:24.000Z,1.45
2022-09-11T21:18:56.009Z,1.38
2022-09-11T21:21:24.942Z,0.90
2022-09-11T21:23:57.961Z,0.77
2022-09-11T21:26:27.919Z,0.55
2022-09-11T21:29:01.105Z,0.57
2022-09-11T21:31:29.693Z,0.38
2022-09-11T21:33:58.056Z,0.40
2022-09-11T21:36:25.854Z,0.50
2022-09-11T21:38:53.090Z,0.77
2022-09-11T21:41:20.413Z,0.10
2022-09-11T21:43:47.695Z,0.22
2022-09-11T21:46:14.874Z,0.50
2022-09-11T21:48:42.445Z,0.55
2022-09-11T21:51:16.411Z,1.25
2022-09-11T21:53:46.421Z,1.42
2022-09-11T21:56:24.382Z,1.40
2022-09-11T21:58:52.483Z,5.10
2022-09-11T22:01:21.265Z,29.80
2022-09-11T22:03:48.938Z,14.27
2022-09-11T22:06:16.624Z,51.80
2022-09-11T22:08:46.385Z,61.20
2022-09-11T22:11:14.381Z,61.17
2022-09-11T22:13:42.070Z,44.93
2022-09-11T22:16:12.616Z,28.52
2022-09-11T22:18:41.075Z,15.05
2022-09-11T22:21:09.697Z,6.07
2022-09-11T22:23:37.241Z,4.00
2022-09-11T22:26:18.535Z,2.53
2022-09-11T22:28:45.868Z,1.45
2022-09-11T22:31:20.096Z,1.98
2022-09-11T22:33:47.638Z,1.15
2022-09-11T22:36:25.006Z,0.88
2022-09-11T22:38:52.354Z,0.68
2022-09-11T22:41:20.154Z,0.63
2022-09-11T22:43:49.414Z,0.40
2022-09-11T22:46:20.065Z,0.40
2022-09-11T22:48:47.869Z,0.30
2022-09-11T22:51:15.986Z,0.40
2022-09-11T22:53:43.324Z,0.30
2022-09-11T22:56:13.049Z,0.43
2022-09-11T22:58:40.969Z,0.63
2022-09-11T23:01:11.020Z,0.40
2022-09-11T23:03:38.113Z,0.13
2022-09-11T23:06:24.163Z,0.20
2022-09-11T23:08:52.185Z,0.35
2022-09-11T23:11:19.697Z,0.52
2022-09-11T23:13:48.901Z,0.30
2022-09-11T23:16:23.358Z,0.47
2022-09-11T23:18:56.048Z,0.57
2022-09-11T23:21:24.406Z,0.30
2022-09-11T23:23:54.720Z,0.98
2022-09-11T23:26:23.994Z,0.47
2022-09-11T23:28:52.002Z,1.00
2022-09-11T23:31:25.950Z,1.00
2022-09-11T23:33:56.113Z,0.40
2022-09-11T23:36:24.339Z,0.30
2022-09-11T23:38:52.240Z,0.35
2022-09-11T23:41:19.900Z,0.30
2022-09-11T23:43:47.718Z,0.30
2022-09-11T23:46:15.818Z,0.20
2022-09-11T23:48:43.442Z,1.10
2022-09-11T23:51:11.518Z,0.50
2022-09-11T23:53:40.132Z,0.80
2022-09-11T23:56:07.388Z,1.38
2022-09-11T23:58:37.899Z,1.00
